This is the latest recevied weather packets stored in our database for station/object OK1KKY-18. If no packets are shown the sender has not sent any weather packets the latest 10 day(s).
| Time | Temp. | Humidity | Pressure | Rain* | Wind** | Luminosity | Snow |
|---|---|---|---|---|---|---|---|
| 1777953360 | 11.11° C | 84% | 1010.3 hPa | - | - | - | - |
| 1777952760 | 11.11° C | 86% | 1010.2 hPa | - | - | - | - |
| 1777952160 | 11.11° C | 87% | 1010.5 hPa | - | - | - | - |
| 1777951560 | 10.56° C | 88% | 1010.5 hPa | - | - | - | - |
| 1777950963 | 10.56° C | 88% | 1010.4 hPa | - | - | - | - |
| 1777950359 | 10.56° C | 89% | 1010.6 hPa | - | - | - | - |
| 1777949759 | 10.56° C | 88% | 1010.8 hPa | - | - | - | - |
| 1777949159 | 10.56° C | 88% | 1011 hPa | - | - | - | - |
| 1777948559 | 10.56° C | 87% | 1011.2 hPa | - | - | - | - |
| 1777947959 | 10.56° C | 88% | 1011.5 hPa | - | - | - | - |
| 1777947359 | 10.56° C | 87% | 1011.7 hPa | - | - | - | - |
| 1777946159 | 10.56° C | 87% | 1011.9 hPa | - | - | - | - |
| 1777945559 | 10.56° C | 86% | 1012.2 hPa | - | - | - | - |
| 1777944959 | 10.56° C | 85% | 1012.9 hPa | - | - | - | - |
| 1777944359 | 10.56° C | 84% | 1012.8 hPa | - | - | - | - |
| 1777943759 | 10.56° C | 83% | 1012.7 hPa | - | - | - | - |
| 1777943159 | 11.11° C | 81% | 1012.7 hPa | - | - | - | - |
| 1777942559 | 11.67° C | 73% | 1012.9 hPa | - | - | - | - |
| 1777941959 | 12.22° C | 68% | 1012.8 hPa | - | - | - | - |
| 1777941359 | 12.22° C | 66% | 1012.7 hPa | - | - | - | - |
| 1777940759 | 11.67° C | 68% | 1012.6 hPa | - | - | - | - |
| 1777940159 | 11.67° C | 67% | 1012.7 hPa | - | - | - | - |
| 1777939559 | 11.67° C | 67% | 1012.8 hPa | - | - | - | - |
| 1777938959 | 12.22° C | 67% | 1012.8 hPa | - | - | - | - |
| 1777938359 | 11.67° C | 67% | 1012.8 hPa | - | - | - | - |
* Rain since midnight (hover to see other rain measurements)
** Current wind speed in m/s (hover to see current wind gust speed)